Time;durP1;ratioP1;P1;durP2;ratioP2;P2;SDS_P1;SDS_P2;PMS_P1;PMS_P2;Temp;Humidity;BMP_temperature;BMP_pressure;BME280_temperature;BME280_humidity;BME280_pressure;Samples;Min_cycle;Max_cycle;Signal;HPM_P1;HPM_P2
2022/08/15 00:02:21;;;;;;;18.10;12.15;;;;;;;18.32;69.78;93184.97;5029227;28;20037;-71
2022/08/15 00:05:01;;;;;;;6.55;4.22;;;;;;;18.17;66.79;93182.25;5028934;28;20735;-69
2022/08/15 00:07:30;;;;;;;8.20;3.58;;;;;;;18.19;66.75;93180.97;5029393;28;20457;-69
2022/08/15 00:10:14;;;;;;;6.70;3.50;;;;;;;18.19;67.18;93181.78;5029028;28;20388;-71
2022/08/15 00:13:08;;;;;;;5.10;3.40;;;;;;;18.15;68.68;93190.28;5015273;28;20090;-69
2022/08/15 00:15:41;;;;;;;7.70;3.63;;;;;;;17.94;71.44;93188.69;5029290;28;20654;-68
2022/08/15 00:18:10;;;;;;;7.25;3.67;;;;;;;18.03;72.23;93194.16;5028637;28;20067;-69
2022/08/15 00:20:38;;;;;;;5.63;3.58;;;;;;;18.00;72.94;93189.53;5029097;28;20053;-71
2022/08/15 00:23:18;;;;;;;6.47;3.50;;;;;;;17.87;73.31;93189.09;5028494;28;20445;-68
2022/08/15 00:25:54;;;;;;;6.60;3.57;;;;;;;18.07;74.09;93191.16;5029035;28;20055;-68
2022/08/15 00:28:28;;;;;;;7.78;3.80;;;;;;;17.85;74.85;93180.47;5027256;28;21908;-68
2022/08/15 00:31:08;;;;;;;5.70;3.42;;;;;;;17.99;74.30;93199.13;5028797;28;20060;-67
2022/08/15 00:33:39;;;;;;;6.03;3.40;;;;;;;18.09;74.33;93192.22;5013698;28;20049;-68
2022/08/15 00:36:08;;;;;;;7.32;3.80;;;;;;;18.05;74.63;93188.09;5028671;28;20111;-68
2022/08/15 00:38:57;;;;;;;6.30;3.60;;;;;;;18.11;76.28;93180.63;5014503;28;20037;-68
2022/08/15 00:41:41;;;;;;;6.07;3.75;;;;;;;17.94;76.97;93170.03;5028218;28;20691;-67
2022/08/15 00:44:32;;;;;;;6.53;3.50;;;;;;;17.98;76.38;93161.50;5013495;28;20543;-68
2022/08/15 00:47:22;;;;;;;5.55;3.50;;;;;;;17.97;77.36;93148.88;5028412;28;20399;-68
2022/08/15 00:49:49;;;;;;;8.48;4.90;;;;;;;17.95;77.07;93143.81;5026196;28;20041;-71
2022/08/15 00:52:30;;;;;;;10.17;3.97;;;;;;;17.87;78.10;93136.38;5027110;28;20072;-68
2022/08/15 00:55:15;;;;;;;8.23;4.20;;;;;;;17.73;80.08;93133.09;5028861;28;20044;-71
2022/08/15 00:57:45;;;;;;;8.25;4.00;;;;;;;17.55;80.20;93142.41;5028500;28;20047;-67
2022/08/15 01:00:39;;;;;;;7.53;3.88;;;;;;;17.21;82.20;93157.72;5027823;28;20792;-68
2022/08/15 01:03:21;;;;;;;7.60;3.80;;;;;;;17.21;82.40;93168.03;5028238;28;20064;-68
2022/08/15 01:05:54;;;;;;;6.37;3.83;;;;;;;17.16;82.80;93175.00;5027093;28;20042;-69
2022/08/15 01:08:28;;;;;;;6.97;4.00;;;;;;;17.04;82.29;93167.72;5027358;28;20221;-68
2022/08/15 01:11:15;;;;;;;8.10;4.10;;;;;;;17.01;83.46;93177.00;5028090;28;20102;-68
2022/08/15 01:13:42;;;;;;;7.47;4.10;;;;;;;17.00;83.87;93190.06;5060469;28;20434;-69
2022/08/15 01:16:30;;;;;;;8.00;4.05;;;;;;;17.00;84.05;93194.84;5027584;28;20418;-68
2022/08/15 01:19:20;;;;;;;6.97;4.17;;;;;;;16.84;85.24;93196.84;5028123;28;20456;-68
2022/08/15 01:21:50;;;;;;;7.80;4.78;;;;;;;16.74;85.81;93196.13;5028126;28;20037;-68
2022/08/15 01:24:46;;;;;;;8.02;4.50;;;;;;;16.73;85.63;93183.50;5028171;28;20041;-68
2022/08/15 01:27:41;;;;;;;8.80;4.70;;;;;;;16.88;85.26;93177.25;5017290;28;21451;-67
2022/08/15 01:30:12;;;;;;;8.50;4.72;;;;;;;16.67;85.22;93179.09;5027929;28;20037;-69
2022/08/15 01:32:59;;;;;;;9.10;4.80;;;;;;;16.73;85.92;93172.41;5027963;28;20075;-69
2022/08/15 01:35:28;;;;;;;7.40;4.75;;;;;;;16.90;84.86;93169.22;5028329;28;20045;-67
2022/08/15 01:37:56;;;;;;;6.35;4.32;;;;;;;17.07;84.50;93164.78;5027902;28;20046;-67
2022/08/15 01:40:44;;;;;;;8.27;4.50;;;;;;;17.12;83.76;93161.34;5029352;28;20751;-70
2022/08/15 01:43:26;;;;;;;7.55;4.70;;;;;;;17.17;82.46;93163.44;5021894;28;20056;-69
2022/08/15 01:45:56;;;;;;;6.77;4.23;;;;;;;17.03;82.31;93160.66;5031825;28;20175;-68
2022/08/15 01:48:30;;;;;;;7.38;5.18;;;;;;;16.88;84.50;93164.19;5031331;28;20645;-67
2022/08/15 01:51:06;;;;;;;8.00;4.63;;;;;;;17.03;83.93;93161.41;5031412;28;20045;-68
2022/08/15 01:53:39;;;;;;;7.60;4.53;;;;;;;16.97;84.17;93160.56;5031898;28;20054;-70
2022/08/15 01:56:08;;;;;;;7.15;4.70;;;;;;;17.02;84.72;93164.66;5031244;28;20057;-69
2022/08/15 01:58:55;;;;;;;9.17;4.93;;;;;;;17.01;84.87;93155.59;5031383;28;20064;-67
2022/08/15 02:01:36;;;;;;;7.82;4.60;;;;;;;16.93;85.67;93157.19;5042326;28;20053;-68
2022/08/15 02:04:07;;;;;;;9.70;5.00;;;;;;;16.85;86.02;93167.88;5026799;28;20041;-68
2022/08/15 02:06:52;;;;;;;8.57;4.38;;;;;;;16.81;86.37;93170.06;5031375;28;20057;-67
2022/08/15 02:09:22;;;;;;;7.68;5.28;;;;;;;16.92;85.82;93172.28;5031102;28;20037;-70
2022/08/15 02:12:10;;;;;;;7.90;4.80;;;;;;;16.73;86.76;93166.09;5030149;28;20053;-70
2022/08/15 02:14:58;;;;;;;7.20;5.03;;;;;;;16.87;85.68;93167.41;5031305;28;20058;-69
2022/08/15 02:17:25;;;;;;;8.38;5.13;;;;;;;16.91;84.33;93173.53;5030566;28;21745;-68
2022/08/15 02:19:59;;;;;;;7.55;4.90;;;;;;;16.79;85.74;93166.97;5031428;28;20060;-67
2022/08/15 02:22:28;;;;;;;7.80;4.57;;;;;;;16.75;85.32;93166.41;5016864;28;20861;-67
2022/08/15 02:24:57;;;;;;;7.87;4.20;;;;;;;16.85;84.64;93173.44;5031358;28;20048;-67
2022/08/15 02:27:31;;;;;;;8.93;4.40;;;;;;;16.87;85.17;93175.72;5030255;28;20041;-66
2022/08/15 02:30:04;;;;;;;8.70;4.55;;;;;;;16.87;85.34;93173.72;5030550;28;20045;-67
2022/08/15 02:32:31;;;;;;;6.10;4.00;;;;;;;16.81;85.94;93177.59;5031041;28;20045;-70
2022/08/15 02:34:59;;;;;;;6.97;4.10;;;;;;;16.83;84.66;93175.91;5030480;28;20411;-65
2022/08/15 02:37:30;;;;;;;6.40;4.00;;;;;;;16.88;84.52;93180.03;5031240;28;20075;-69
2022/08/15 02:40:08;;;;;;;6.15;4.10;;;;;;;16.83;84.58;93177.91;5030593;28;20111;-67
2022/08/15 02:42:56;;;;;;;7.85;4.22;;;;;;;16.80;85.10;93176.06;5030897;28;20056;-70
2022/08/15 02:45:22;;;;;;;6.70;4.03;;;;;;;16.80;84.70;93176.81;5030703;28;20486;-71
2022/08/15 02:47:49;;;;;;;6.85;4.07;;;;;;;16.80;84.80;93171.28;5030704;28;20449;-67
2022/08/15 02:50:16;;;;;;;6.60;3.30;;;;;;;16.83;83.78;93177.91;5030363;28;20041;-67
2022/08/15 02:52:48;;;;;;;6.55;3.70;;;;;;;16.68;84.63;93177.84;5029878;28;20049;-67
2022/08/15 02:55:19;;;;;;;6.90;4.18;;;;;;;16.55;84.83;93178.09;5030488;28;20409;-68
2022/08/15 02:57:47;;;;;;;7.00;3.95;;;;;;;16.68;84.09;93181.38;5061695;28;20418;-70
2022/08/15 03:00:29;;;;;;;5.90;3.40;;;;;;;16.50;84.39;93173.97;5029965;28;20910;-67
2022/08/15 03:02:59;;;;;;;6.20;3.37;;;;;;;16.38;84.73;93172.22;5030159;28;20440;-70
2022/08/15 03:05:29;;;;;;;5.85;3.42;;;;;;;16.30;85.27;93163.47;5029742;28;20045;-68
2022/08/15 03:07:56;;;;;;;5.25;3.30;;;;;;;16.43;84.86;93166.00;5030480;28;20049;-67
2022/08/15 03:10:24;;;;;;;6.40;3.50;;;;;;;16.51;83.72;93163.66;5061171;28;20039;-67
2022/08/15 03:13:00;;;;;;;6.25;3.35;;;;;;;16.60;83.12;93157.28;5030390;28;20057;-68
2022/08/15 03:15:32;;;;;;;5.10;3.13;;;;;;;16.60;82.59;93143.41;5029822;28;20041;-68
2022/08/15 03:18:01;;;;;;;5.25;3.25;;;;;;;16.57;82.96;93147.91;5029849;28;20049;-68
2022/08/15 03:20:28;;;;;;;6.53;3.15;;;;;;;16.54;82.77;93144.09;5030088;28;20049;-69
2022/08/15 03:22:57;;;;;;;6.28;2.90;;;;;;;16.55;82.43;93137.31;5030163;28;20045;-70
2022/08/15 03:25:25;;;;;;;5.82;3.00;;;;;;;16.39;83.66;93134.97;5007506;28;20826;-68
2022/08/15 03:27:57;;;;;;;6.10;3.47;;;;;;;16.27;84.35;93128.41;5033587;28;20054;-71
2022/08/15 03:30:24;;;;;;;5.70;3.03;;;;;;;16.42;83.27;93122.16;5028768;28;21650;-68
2022/08/15 03:32:54;;;;;;;4.68;2.58;;;;;;;16.33;82.84;93118.22;5029907;28;20042;-68
2022/08/15 03:35:24;;;;;;;4.90;2.90;;;;;;;16.29;82.56;93134.25;5029620;28;20037;-68
2022/08/15 03:37:57;;;;;;;4.90;2.67;;;;;;;16.29;82.93;93145.31;5029754;28;20034;-67
2022/08/15 03:40:28;;;;;;;5.57;2.93;;;;;;;15.94;83.99;93147.84;5029072;28;20041;-70
2022/08/15 03:43:05;;;;;;;4.80;3.00;;;;;;;15.94;83.98;93137.53;5029768;28;20041;-70
2022/08/15 03:45:43;;;;;;;5.75;3.13;;;;;;;16.13;83.16;93140.97;5029001;28;20780;-67
2022/08/15 03:48:10;;;;;;;5.72;3.17;;;;;;;16.16;82.88;93136.50;5029530;28;20486;-68
2022/08/15 03:50:52;;;;;;;6.22;3.33;;;;;;;16.29;83.01;93163.94;5017148;28;20045;-68
2022/08/15 03:53:25;;;;;;;8.03;3.40;;;;;;;16.11;83.77;93168.34;5029037;28;21549;-67
2022/08/15 03:55:55;;;;;;;6.85;3.28;;;;;;;16.28;83.13;93176.25;5015975;28;20038;-70
2022/08/15 03:58:25;;;;;;;7.57;3.50;;;;;;;16.24;83.51;93172.88;5028509;28;20688;-69
2022/08/15 04:01:05;;;;;;;6.03;3.70;;;;;;;16.23;83.45;93174.91;5028994;28;20051;-68
2022/08/15 04:03:32;;;;;;;6.10;3.80;;;;;;;16.12;84.32;93180.97;5029357;28;20042;-68
2022/08/15 04:06:06;;;;;;;9.00;3.90;;;;;;;16.12;85.04;93186.50;5028789;28;20056;-67
2022/08/15 04:08:41;;;;;;;7.82;3.72;;;;;;;16.16;84.79;93181.56;5029458;28;20071;-67
2022/08/15 04:11:30;;;;;;;7.20;4.00;;;;;;;16.14;84.54;93177.72;4996513;28;21265;-67
2022/08/15 04:14:01;;;;;;;6.25;3.90;;;;;;;15.88;85.69;93180.94;5008749;28;20045;-67
2022/08/15 04:16:28;;;;;;;7.43;4.30;;;;;;;15.87;86.09;93181.38;5009549;28;20052;-68
2022/08/15 04:19:15;;;;;;;6.67;4.20;;;;;;;15.78;86.45;93187.72;5008872;28;20057;-67
2022/08/15 04:21:42;;;;;;;8.18;4.32;;;;;;;15.72;86.42;93189.56;5009413;28;20050;-67
2022/08/15 04:24:16;;;;;;;7.35;3.90;;;;;;;15.72;85.48;93190.38;5008791;28;20089;-68
2022/08/15 04:26:54;;;;;;;6.47;3.67;;;;;;;15.69;84.96;93187.72;5009270;28;20069;-68
2022/08/15 04:29:21;;;;;;;7.43;3.85;;;;;;;15.61;84.44;93201.13;5008960;28;20054;-67
2022/08/15 04:31:48;;;;;;;7.43;3.80;;;;;;;15.73;84.47;93199.41;5040635;28;20438;-68
2022/08/15 04:34:21;;;;;;;6.97;3.85;;;;;;;15.62;84.69;93197.13;5008389;28;20494;-67
2022/08/15 04:37:09;;;;;;;7.28;3.80;;;;;;;15.79;83.90;93203.09;5008232;28;20046;-67
2022/08/15 04:39:38;;;;;;;7.03;3.90;;;;;;;15.81;83.38;93200.63;5009299;28;20056;-67
2022/08/15 04:42:06;;;;;;;6.35;3.55;;;;;;;15.69;83.61;93205.09;5008431;28;20591;-67
2022/08/15 04:44:39;;;;;;;6.47;3.47;;;;;;;15.73;83.28;93205.72;5009099;28;20054;-67
2022/08/15 04:47:10;;;;;;;7.68;3.60;;;;;;;15.77;82.88;93203.56;5018194;28;20045;-67
2022/08/15 04:49:38;;;;;;;5.65;3.25;;;;;;;15.65;82.69;93204.47;5023863;28;20418;-68
2022/08/15 04:52:16;;;;;;;6.82;3.47;;;;;;;15.73;82.17;93207.72;5027996;28;20054;-68
2022/08/15 04:54:43;;;;;;;7.38;3.83;;;;;;;15.84;82.08;93198.94;5028695;28;20402;-67
2022/08/15 04:57:24;;;;;;;8.33;3.50;;;;;;;15.84;82.06;93199.69;5026431;28;20577;-67
2022/08/15 04:59:51;;;;;;;6.35;3.15;;;;;;;15.91;81.47;93191.03;5028526;28;20049;-70
2022/08/15 05:02:31;;;;;;;8.60;3.50;;;;;;;15.86;81.25;93182.63;5027882;28;20410;-67
2022/08/15 05:05:18;;;;;;;5.63;2.90;;;;;;;15.81;81.77;93184.00;5016205;28;20057;-67
2022/08/15 05:07:45;;;;;;;6.05;3.00;;;;;;;15.56;82.74;93180.41;5028811;28;20048;-67
2022/08/15 05:10:26;;;;;;;6.23;3.40;;;;;;;15.69;82.34;93187.72;5007985;28;20655;-67
2022/08/15 05:13:16;;;;;;;6.32;3.30;;;;;;;15.85;81.39;93183.84;5008131;28;20049;-69
2022/08/15 05:15:44;;;;;;;6.85;3.20;;;;;;;15.83;81.32;93180.78;4998742;28;20409;-68
2022/08/15 05:18:21;;;;;;;5.88;3.40;;;;;;;15.95;80.79;93179.81;5012636;28;20042;-70
2022/08/15 05:20:49;;;;;;;4.68;2.85;;;;;;;15.93;80.85;93171.22;5012631;28;20038;-74
2022/08/15 05:23:20;;;;;;;5.23;3.20;;;;;;;16.01;80.64;93171.63;5012429;28;20054;-68
2022/08/15 05:26:09;;;;;;;8.05;3.17;;;;;;;15.96;80.88;93178.59;5011767;28;20069;-70
2022/08/15 05:28:56;;;;;;;6.45;3.30;;;;;;;16.02;80.26;93182.25;5011966;28;20062;-68
2022/08/15 05:31:25;;;;;;;5.95;3.30;;;;;;;16.16;79.64;93169.72;5011578;28;20761;-68
2022/08/15 05:34:00;;;;;;;6.57;3.40;;;;;;;16.50;77.96;93168.44;5012095;28;20034;-68
2022/08/15 05:36:28;;;;;;;5.83;3.30;;;;;;;16.78;77.46;93159.91;5012451;28;20045;-69
2022/08/15 05:38:59;;;;;;;5.97;3.10;;;;;;;16.99;76.59;93160.09;5011961;28;20404;-67
2022/08/15 05:41:32;;;;;;;5.88;2.90;;;;;;;17.25;75.03;93149.97;5011575;28;21848;-70
2022/08/15 05:44:48;;;;;;;5.43;2.88;;;;;;;17.43;73.85;93134.38;5011604;28;20048;-64
2022/08/15 05:47:31;;;;;;;5.18;2.88;;;;;;;17.49;72.85;93149.13;5008680;28;20062;-68
2022/08/15 05:50:26;;;;;;;6.80;2.90;;;;;;;17.64;71.66;93160.94;5008598;28;20053;-65
2022/08/15 05:53:29;;;;;;;5.78;2.95;;;;;;;17.78;71.12;93153.84;4998207;28;20046;-69
2022/08/15 05:56:34;;;;;;;6.63;2.80;;;;;;;18.13;70.71;93162.25;4990889;28;20669;-69
2022/08/15 05:59:14;;;;;;;5.97;2.70;;;;;;;18.24;69.04;93166.44;5027428;28;20397;-68
2022/08/15 06:01:53;;;;;;;5.40;2.78;;;;;;;18.22;68.81;93168.91;5029792;28;20071;-69
2022/08/15 06:04:42;;;;;;;4.53;2.70;;;;;;;18.58;68.45;93169.66;5031241;28;20707;-68
2022/08/15 06:07:13;;;;;;;5.18;2.70;;;;;;;18.73;68.16;93157.22;5031196;28;20324;-68
2022/08/15 06:10:00;;;;;;;4.88;2.75;;;;;;;18.64;67.54;93159.38;5031575;28;20049;-69
2022/08/15 06:12:37;;;;;;;5.50;3.10;;;;;;;18.25;69.63;93171.50;5030702;28;20396;-68
2022/08/15 06:15:14;;;;;;;5.50;3.10;;;;;;;18.65;69.76;93166.44;5016418;28;20033;-67
2022/08/15 06:17:45;;;;;;;4.93;2.90;;;;;;;18.92;68.04;93168.06;5031224;28;20063;-67
2022/08/15 06:20:19;;;;;;;5.80;3.28;;;;;;;21.38;61.42;93165.97;5030633;28;20045;-67
2022/08/15 06:23:10;;;;;;;5.20;3.50;;;;;;;19.73;65.00;93155.97;5030328;28;20076;-69
2022/08/15 06:25:55;;;;;;;6.40;3.75;;;;;;;19.74;66.03;93165.88;5030731;28;20042;-68
2022/08/15 06:28:43;;;;;;;5.60;3.22;;;;;;;23.50;54.38;93154.94;5030373;28;20049;-68
2022/08/15 06:31:37;;;;;;;4.73;2.90;;;;;;;23.65;52.51;93157.41;5030732;28;20486;-71
2022/08/15 06:34:22;;;;;;;6.30;3.20;;;;;;;23.26;53.41;93166.81;5019449;28;20052;-68
2022/08/15 06:37:16;;;;;;;5.93;3.53;;;;;;;23.98;50.75;93161.25;5014273;28;20045;-67
2022/08/15 06:40:11;;;;;;;4.57;3.03;;;;;;;27.49;42.09;93154.97;5031159;28;20049;-68
2022/08/15 06:42:56;;;;;;;4.90;2.88;;;;;;;26.88;42.54;93155.66;5017153;28;21571;-69
2022/08/15 06:45:28;;;;;;;5.07;2.80;;;;;;;26.34;44.38;93153.28;5029930;28;20703;-71
2022/08/15 06:48:05;;;;;;;5.63;2.90;;;;;;;26.43;43.11;93155.69;5015483;28;20049;-71
2022/08/15 06:50:56;;;;;;;4.65;2.90;;;;;;;26.80;42.61;93154.78;5030203;28;20049;-69
2022/08/15 06:53:23;;;;;;;5.68;2.85;;;;;;;28.19;39.13;93160.06;5028472;28;20333;-68
2022/08/15 06:56:13;;;;;;;4.55;2.65;;;;;;;27.37;39.86;93157.25;5030614;28;20049;-68
2022/08/15 06:58:51;;;;;;;4.00;2.57;;;;;;;27.40;39.43;93161.03;5010746;28;20953;-70
2022/08/15 07:01:46;;;;;;;3.97;2.67;;;;;;;26.97;40.46;93162.91;5029927;28;20052;-69
2022/08/15 07:04:45;;;;;;;4.22;2.95;;;;;;;26.38;42.14;93156.53;5022907;28;20385;-68
2022/08/15 07:07:19;;;;;;;5.07;2.80;;;;;;;26.77;41.47;93157.94;5015737;28;20038;-67
2022/08/15 07:09:53;;;;;;;4.55;2.65;;;;;;;27.13;39.82;93163.88;5030316;28;20042;-68
2022/08/15 07:12:43;;;;;;;5.50;2.77;;;;;;;26.47;41.70;93167.38;5029925;28;20056;-69
2022/08/15 07:15:52;;;;;;;4.00;2.72;;;;;;;27.73;39.08;93165.19;5029679;28;22530;-68
2022/08/15 07:18:44;;;;;;;3.55;2.60;;;;;;;26.55;40.06;93159.06;5001461;28;20041;-72
2022/08/15 07:21:21;;;;;;;3.88;2.30;;;;;;;26.40;41.33;93159.56;5029508;28;20075;-68
2022/08/15 07:24:04;;;;;;;5.10;2.50;;;;;;;27.49;38.84;93158.53;5030603;28;20490;-70
2022/08/15 07:26:59;;;;;;;4.07;2.43;;;;;;;28.16;38.58;93157.56;5029384;28;20048;-67
2022/08/15 07:29:37;;;;;;;4.10;2.45;;;;;;;30.66;33.43;93150.66;5028974;28;20690;-68
2022/08/15 07:32:09;;;;;;;3.50;2.53;;;;;;;28.51;36.11;93155.44;5029007;28;20049;-68
2022/08/15 07:34:59;;;;;;;4.57;2.40;;;;;;;28.21;37.28;93154.63;5029861;28;20417;-69
2022/08/15 07:37:34;;;;;;;4.53;2.55;;;;;;;28.64;36.45;93156.13;5028161;28;20174;-69
2022/08/15 07:40:12;;;;;;;3.73;2.50;;;;;;;28.26;37.63;93152.94;5028638;28;20075;-72
2022/08/15 07:42:44;;;;;;;3.95;2.80;;;;;;;28.53;37.81;93150.00;5029292;28;20050;-70
2022/08/15 07:45:37;;;;;;;4.20;2.55;;;;;;;30.33;33.04;93133.50;5028546;28;20643;-72
2022/08/15 07:48:25;;;;;;;4.15;2.70;;;;;;;31.67;31.73;93148.41;5028765;28;20067;-69
2022/08/15 07:51:26;;;;;;;3.35;2.40;;;;;;;34.31;27.34;93142.03;5029560;28;20486;-70
2022/08/15 07:54:51;;;;;;;4.07;2.57;;;;;;;33.13;28.11;93133.22;4968787;28;21613;-69
2022/08/15 07:57:25;;;;;;;3.78;2.35;;;;;;;32.02;29.55;93135.22;5025408;28;20045;-69
2022/08/15 08:00:13;;;;;;;3.88;2.50;;;;;;;32.35;29.15;93141.59;5029149;28;20042;-69
2022/08/15 08:03:05;;;;;;;3.28;2.15;;;;;;;31.97;29.25;93141.81;5028701;28;20058;-69
2022/08/15 08:05:54;;;;;;;4.78;2.40;;;;;;;31.96;28.26;93143.16;5029529;28;20469;-70
2022/08/15 08:08:31;;;;;;;4.13;2.17;;;;;;;32.30;28.70;93144.66;5028602;28;20110;-69
2022/08/15 08:11:23;;;;;;;3.60;2.38;;;;;;;32.69;28.03;93145.91;5028514;28;20049;-69
2022/08/15 08:14:08;;;;;;;6.70;2.70;;;;;;;32.53;28.63;93139.56;5016132;28;20053;-69
2022/08/15 08:16:59;;;;;;;3.08;2.20;;;;;;;32.30;28.01;93148.28;5008834;28;21727;-69
2022/08/15 08:20:11;;;;;;;4.18;2.47;;;;;;;32.32;28.90;93151.28;5028452;28;20188;-71
2022/08/15 08:22:50;;;;;;;3.90;2.40;;;;;;;33.37;27.76;93140.91;5011425;28;20278;-72
2022/08/15 08:25:24;;;;;;;3.63;2.30;;;;;;;32.83;27.93;93144.28;5028519;28;20041;-69
2022/08/15 08:28:34;;;;;;;3.60;2.45;;;;;;;34.34;26.45;93137.25;5028110;28;20087;-70
2022/08/15 08:31:12;;;;;;;4.20;2.63;;;;;;;34.13;26.40;93134.84;5010663;28;20053;-70
2022/08/15 08:34:05;;;;;;;6.32;2.50;;;;;;;32.71;27.75;93142.50;5028993;28;20508;-69
2022/08/15 08:36:50;;;;;;;4.70;2.40;;;;;;;33.84;26.38;93129.75;5018293;28;20064;-69
2022/08/15 08:39:40;;;;;;;4.25;3.05;;;;;;;33.29;28.04;93130.97;5028093;28;20387;-69
2022/08/15 08:42:45;;;;;;;4.95;2.80;;;;;;;31.14;31.19;93135.91;5020704;28;20502;-69
2022/08/15 08:45:44;;;;;;;4.55;3.00;;;;;;;30.93;31.59;93128.41;5018280;28;20045;-70
2022/08/15 08:48:25;;;;;;;4.40;2.45;;;;;;;32.06;28.48;93124.22;5014430;28;20057;-71
2022/08/15 08:51:31;;;;;;;3.80;2.53;;;;;;;32.87;28.16;93132.50;5028347;28;20082;-70
2022/08/15 08:54:01;;;;;;;4.32;2.80;;;;;;;32.83;27.74;93135.75;5007779;28;21729;-66
2022/08/15 08:56:45;;;;;;;4.47;2.80;;;;;;;35.73;24.93;93130.69;5027737;28;20618;-70
2022/08/15 08:59:35;;;;;;;4.88;2.35;;;;;;;36.89;21.40;93125.28;5028623;28;20041;-71
2022/08/15 09:02:17;;;;;;;4.13;2.30;;;;;;;34.84;24.18;93125.47;5026730;28;20050;-73
2022/08/15 09:04:50;;;;;;;3.90;2.63;;;;;;;32.34;27.79;93125.91;5028542;28;20049;-71
2022/08/15 09:07:28;;;;;;;4.85;2.78;;;;;;;32.72;26.74;93126.94;5027916;28;20034;-71
2022/08/15 09:10:00;;;;;;;3.50;2.30;;;;;;;34.52;24.86;93118.72;5028640;28;20045;-70
2022/08/15 09:15:29;;;;;;;4.30;2.40;;;;;;;36.11;21.86;93120.53;5027558;28;20063;-72
2022/08/15 09:18:19;;;;;;;3.70;2.47;;;;;;;34.89;23.74;93112.25;5027969;28;20041;-69
2022/08/15 09:20:46;;;;;;;3.85;2.47;;;;;;;33.65;24.59;93107.63;5028327;28;20050;-70
2022/08/15 09:23:20;;;;;;;5.78;2.90;;;;;;;33.43;24.43;93109.38;5026735;28;20053;-72
2022/08/15 09:26:13;;;;;;;4.32;2.60;;;;;;;33.02;25.28;93112.47;5027934;28;20046;-67
2022/08/15 09:29:06;;;;;;;4.38;2.65;;;;;;;33.88;23.77;93110.16;5028348;28;20114;-70
2022/08/15 09:31:58;;;;;;;4.47;2.60;;;;;;;34.99;22.60;93107.31;5027424;28;20050;-70
2022/08/15 09:34:48;;;;;;;5.22;2.80;;;;;;;36.07;21.66;93105.22;5031176;28;20045;-70
2022/08/15 09:37:39;;;;;;;3.90;2.90;;;;;;;36.06;20.88;93098.78;5059058;28;20059;-70
2022/08/15 09:40:15;;;;;;;4.63;2.60;;;;;;;36.22;21.37;93096.31;5027642;28;20057;-71
2022/08/15 09:43:41;;;;;;;3.97;2.90;;;;;;;34.77;23.11;93089.28;5027662;28;20046;-70
2022/08/15 09:46:10;;;;;;;5.77;2.73;;;;;;;36.29;21.65;93094.66;5027630;28;20075;-70
2022/08/15 09:49:17;;;;;;;3.70;2.70;;;;;;;37.09;19.99;93100.16;5028471;28;20059;-70
2022/08/15 09:52:25;;;;;;;5.05;2.78;;;;;;;37.22;19.52;93090.31;5027141;28;20725;-70
2022/08/15 09:55:20;;;;;;;3.67;2.60;;;;;;;37.11;19.76;93081.03;5026625;28;20589;-71
2022/08/15 09:57:54;;;;;;;4.07;2.85;;;;;;;35.48;20.88;93079.63;5028090;28;20048;-71
2022/08/15 10:00:53;;;;;;;4.00;2.57;;;;;;;34.93;21.74;93070.56;5027546;28;20060;-71
2022/08/15 10:03:44;;;;;;;4.80;2.78;;;;;;;36.22;20.86;93069.88;5031381;28;20048;-71
2022/08/15 10:06:25;;;;;;;4.85;3.20;;;;;;;37.51;19.39;93064.28;5031253;28;20130;-71
2022/08/15 10:09:15;;;;;;;4.45;2.60;;;;;;;37.87;18.56;93060.22;5018864;28;20098;-70
2022/08/15 10:11:48;;;;;;;4.68;2.75;;;;;;;36.91;19.76;93071.06;5031571;28;20083;-71
2022/08/15 10:14:47;;;;;;;4.43;2.80;;;;;;;36.62;19.02;93051.94;5028634;28;20787;-72
2022/08/15 10:17:23;;;;;;;4.32;3.00;;;;;;;34.04;22.01;93056.59;5017827;28;20056;-70
2022/08/15 10:19:55;;;;;;;5.05;2.97;;;;;;;35.29;20.46;93053.94;5031545;28;20147;-70
2022/08/15 10:22:53;;;;;;;5.38;3.38;;;;;;;35.64;20.22;93060.06;5023606;28;20504;-70
2022/08/15 10:25:37;;;;;;;5.28;2.92;;;;;;;36.32;19.28;93053.44;5030640;28;20046;-71
2022/08/15 10:28:12;;;;;;;5.20;2.90;;;;;;;36.10;19.79;93056.22;5030672;28;20055;-70
2022/08/15 10:31:00;;;;;;;4.03;2.80;;;;;;;35.25;20.12;93054.38;5030544;28;20045;-67
2022/08/15 10:33:30;;;;;;;4.15;2.70;;;;;;;35.77;20.59;93053.91;5030732;28;20057;-71
2022/08/15 10:36:14;;;;;;;4.68;2.97;;;;;;;35.80;20.25;93049.09;5030744;28;20498;-70
2022/08/15 10:39:16;;;;;;;3.78;2.83;;;;;;;34.89;21.28;93049.53;5030721;28;20046;-71
2022/08/15 10:41:46;;;;;;;5.40;2.90;;;;;;;35.95;19.46;93043.03;5030234;28;20727;-71
2022/08/15 10:44:51;;;;;;;5.95;3.00;;;;;;;35.18;21.36;93041.03;5030038;28;20508;-70
2022/08/15 10:47:56;;;;;;;4.35;2.83;;;;;;;32.44;24.46;93052.19;4979268;28;20438;-72
2022/08/15 10:50:48;;;;;;;4.65;3.10;;;;;;;34.43;22.27;93042.56;4984928;28;20184;-70
2022/08/15 10:53:48;;;;;;;4.50;3.05;;;;;;;34.58;21.38;93030.13;5030310;28;20046;-70
2022/08/15 10:56:27;;;;;;;4.93;3.20;;;;;;;34.52;21.49;93032.50;5017737;28;20082;-71
2022/08/15 10:59:21;;;;;;;4.93;3.38;;;;;;;33.35;22.58;93024.16;5029830;28;20351;-70
2022/08/15 11:01:51;;;;;;;5.85;3.28;;;;;;;33.70;23.02;93026.19;5030536;28;20041;-70
2022/08/15 11:04:35;;;;;;;4.63;3.10;;;;;;;32.55;24.11;93017.63;5029906;28;20413;-69
2022/08/15 11:07:49;;;;;;;4.53;3.13;;;;;;;31.19;26.03;93013.81;5029893;28;20077;-70
2022/08/15 11:10:30;;;;;;;5.73;3.33;;;;;;;30.73;26.57;93019.63;5012823;28;20049;-69
2022/08/15 11:13:06;;;;;;;5.65;3.42;;;;;;;30.49;27.25;93028.75;5028041;28;20053;-69
2022/08/15 11:15:58;;;;;;;5.43;3.40;;;;;;;30.70;26.78;93015.09;5026421;28;20630;-69
2022/08/15 11:18:52;;;;;;;6.07;3.40;;;;;;;29.40;28.09;93022.25;5029569;28;20072;-69
2022/08/15 11:21:42;;;;;;;4.40;3.10;;;;;;;29.65;28.79;93010.41;5028795;28;21829;-70
2022/08/15 11:24:11;;;;;;;9.30;3.73;;;;;;;29.40;29.52;93015.81;5029973;28;20056;-69
2022/08/15 11:26:45;;;;;;;4.75;3.22;;;;;;;29.56;29.35;93006.06;5023761;28;20101;-69
2022/08/15 11:29:24;;;;;;;6.47;3.28;;;;;;;28.83;30.82;93011.09;5024304;28;20551;-69
2022/08/15 11:31:56;;;;;;;5.90;3.60;;;;;;;28.77;30.72;93013.31;5030246;28;20037;-71
2022/08/15 11:34:49;;;;;;;5.25;3.53;;;;;;;28.21;31.68;93012.78;5029171;28;20041;-69
2022/08/15 11:37:24;;;;;;;6.37;3.30;;;;;;;28.58;30.63;93011.53;5016238;28;20401;-71
2022/08/15 11:40:08;;;;;;;6.03;3.20;;;;;;;28.14;31.37;93010.69;5029883;28;20057;-69
2022/08/15 11:42:41;;;;;;;5.78;3.40;;;;;;;28.61;30.78;92992.72;5017369;28;20433;-70
2022/08/15 11:45:37;;;;;;;5.85;3.25;;;;;;;29.23;29.56;92997.31;5028647;28;20545;-69
2022/08/15 11:48:28;;;;;;;5.10;3.42;;;;;;;28.55;30.15;93000.59;5029258;28;20057;-69
2022/08/15 11:51:22;;;;;;;6.17;3.30;;;;;;;28.36;29.77;93001.59;5029379;28;20037;-69
2022/08/15 11:54:12;;;;;;;5.93;3.20;;;;;;;28.53;30.06;92991.94;5029789;28;20099;-71
2022/08/15 11:56:48;;;;;;;5.05;3.13;;;;;;;29.01;29.42;93006.47;5016058;28;20075;-71
2022/08/15 11:59:43;;;;;;;6.78;3.17;;;;;;;28.90;29.29;93004.72;5028639;28;20051;-69
2022/08/15 12:02:23;;;;;;;5.55;3.10;;;;;;;28.87;28.99;92998.09;5019327;28;20063;-71
2022/08/15 12:05:09;;;;;;;5.20;2.97;;;;;;;27.41;30.28;93001.97;5029676;28;20054;-68
2022/08/15 12:07:59;;;;;;;6.78;2.80;;;;;;;27.32;30.41;93006.00;5028741;28;20411;-71
2022/08/15 12:10:34;;;;;;;4.57;2.72;;;;;;;27.51;29.49;93011.44;5028201;28;20048;-69
2022/08/15 12:13:23;;;;;;;5.43;2.80;;;;;;;28.19;28.95;93013.34;5028820;28;20079;-69
2022/08/15 12:15:59;;;;;;;5.18;2.70;;;;;;;27.77;29.78;93001.31;5029158;28;20042;-68
2022/08/15 12:18:34;;;;;;;4.70;2.60;;;;;;;27.44;30.29;92998.03;5029005;28;20045;-68
2022/08/15 12:21:17;;;;;;;4.30;2.60;;;;;;;27.77;29.64;92996.47;5014632;28;20034;-69
2022/08/15 12:23:49;;;;;;;4.43;2.53;;;;;;;28.39;28.84;92992.03;5028692;28;20080;-69
2022/08/15 12:26:21;;;;;;;4.60;2.70;;;;;;;28.70;28.72;92986.56;5028409;28;20047;-70
2022/08/15 12:29:07;;;;;;;5.18;2.55;;;;;;;28.38;28.20;92984.88;5028047;28;20490;-69
2022/08/15 12:31:38;;;;;;;6.67;2.90;;;;;;;28.54;28.91;92985.75;5028910;28;20049;-71
2022/08/15 12:34:21;;;;;;;5.47;3.13;;;;;;;27.98;30.16;92979.53;5015700;28;20067;-68
2022/08/15 12:37:01;;;;;;;4.78;2.78;;;;;;;28.53;29.55;92983.47;5029208;28;20437;-68
2022/08/15 12:39:56;;;;;;;4.90;2.80;;;;;;;27.65;29.67;92986.78;5015189;28;20683;-68
2022/08/15 12:42:29;;;;;;;5.13;2.63;;;;;;;27.62;30.36;92990.69;5026400;28;20041;-69